createdAt,value
2017-05-14T00:00:31.358Z,23.12
2017-05-14T00:01:31.390Z,23.22
2017-05-14T00:02:31.097Z,23.15
2017-05-14T00:03:31.125Z,23.16
2017-05-14T00:04:31.471Z,23.22
2017-05-14T00:05:31.183Z,23.17
2017-05-14T00:06:31.200Z,23.2
2017-05-14T00:07:31.557Z,23.17
2017-05-14T00:08:31.266Z,23.23
2017-05-14T00:09:31.304Z,23.22
2017-05-14T00:10:31.631Z,23.13
2017-05-14T00:11:31.660Z,23.23
2017-05-14T00:12:31.385Z,23.17
2017-05-14T00:13:31.087Z,23.19
2017-05-14T00:14:31.738Z,23.12
2017-05-14T00:15:31.146Z,23.15
2017-05-14T00:16:31.496Z,23.13
2017-05-14T00:17:31.828Z,23.2
2017-05-14T00:18:31.850Z,23.19
2017-05-14T00:19:31.877Z,23.13
2017-05-14T00:20:31.910Z,23.19
2017-05-14T00:21:31.936Z,23.2
2017-05-14T00:22:31.657Z,23.16
2017-05-14T00:23:31.998Z,23.19
2017-05-14T00:24:32.016Z,23.17
2017-05-14T00:25:31.746Z,23.09
2017-05-14T00:26:31.758Z,23.17
2017-05-14T00:27:32.103Z,23.1
2017-05-14T00:28:32.128Z,23.22
2017-05-14T00:29:31.847Z,23.19
2017-05-14T00:30:32.186Z,23.17
2017-05-14T00:31:31.897Z,23.16
2017-05-14T00:32:32.237Z,23.15
2017-05-14T00:33:32.267Z,23.2
2017-05-14T00:34:32.293Z,23.19
2017-05-14T00:35:32.010Z,23.17
2017-05-14T00:36:32.051Z,23.19
2017-05-14T00:37:32.068Z,23.19
2017-05-14T00:38:32.414Z,23.07
2017-05-14T00:39:32.433Z,23.19
2017-05-14T00:40:32.466Z,23.22
2017-05-14T00:41:32.491Z,23.22
2017-05-14T00:42:32.515Z,23.19
2017-05-14T00:43:32.544Z,23.19
2017-05-14T00:44:32.249Z,23.22
2017-05-14T00:45:32.538Z,23.15
2017-05-14T00:46:32.627Z,23.2
2017-05-14T00:47:32.659Z,23.19
2017-05-14T00:48:32.685Z,23.19
2017-05-14T00:49:32.710Z,23.07
2017-05-14T00:50:32.678Z,23.16
2017-05-14T00:51:32.771Z,23.2
2017-05-14T00:52:32.790Z,23.13
2017-05-14T00:53:32.516Z,23.23
2017-05-14T00:54:32.847Z,23.19
2017-05-14T00:55:32.767Z,23.19
2017-05-14T00:56:32.582Z,23.19
2017-05-14T00:57:32.934Z,23.16
2017-05-14T00:58:32.956Z,23.17
2017-05-14T00:59:32.674Z,23.19
2017-05-14T01:00:33.002Z,23.17
2017-05-14T01:01:33.043Z,23.17
2017-05-14T01:02:33.071Z,23.13
2017-05-14T01:03:32.781Z,23.22
2017-05-14T01:04:33.126Z,23.15
2017-05-14T01:05:33.093Z,23.15
2017-05-14T01:06:32.551Z,23.19
2017-05-14T01:07:32.895Z,23.12
2017-05-14T01:08:33.243Z,23.19
2017-05-14T01:09:33.256Z,23.12
2017-05-14T01:10:33.550Z,23.05
2017-05-14T01:11:33.318Z,23.13
2017-05-14T01:12:33.346Z,23.05
2017-05-14T01:13:33.375Z,23.1
2017-05-14T01:14:32.780Z,23.12
2017-05-14T01:15:33.681Z,23.13
2017-05-14T01:16:33.134Z,23.19
2017-05-14T01:17:32.861Z,23.19
2017-05-14T01:18:32.876Z,23.1
2017-05-14T01:19:33.541Z,23.2
2017-05-14T01:20:33.818Z,23.1
2017-05-14T01:21:33.590Z,23.13
2017-05-14T01:22:33.623Z,23.13
2017-05-14T01:23:33.671Z,23.13
2017-05-14T01:24:33.365Z,23.16
2017-05-14T01:25:33.958Z,23.17
2017-05-14T01:26:33.734Z,23.1
2017-05-14T01:27:33.448Z,23.12
2017-05-14T01:28:33.475Z,23.1
2017-05-14T01:29:33.504Z,23.05
2017-05-14T01:30:34.092Z,23.16
2017-05-14T01:31:33.871Z,23.1
2017-05-14T01:32:33.902Z,23.1
2017-05-14T01:33:33.928Z,23.09
2017-05-14T01:34:33.646Z,23.12
2017-05-14T01:35:33.924Z,23.12
2017-05-14T01:36:34.015Z,23.09
2017-05-14T01:37:34.044Z,23.12
2017-05-14T01:38:34.068Z,23.09
2017-05-14T01:39:33.781Z,23.09
2017-05-14T01:40:34.381Z,23.12
2017-05-14T01:41:34.146Z,23.04
2017-05-14T01:42:34.180Z,23.16
2017-05-14T01:43:34.207Z,23.05
2017-05-14T01:44:33.929Z,23.09
2017-05-14T01:45:34.257Z,23.1
2017-05-14T01:46:33.966Z,23.05
2017-05-14T01:47:34.007Z,23.17
2017-05-14T01:48:34.028Z,23.16
2017-05-14T01:49:34.052Z,23.1
2017-05-14T01:50:34.087Z,23.12
2017-05-14T01:51:34.110Z,23.05
2017-05-14T01:52:34.454Z,23.07
2017-05-14T01:53:34.476Z,23.09
2017-05-14T01:54:33.881Z,23.07
2017-05-14T01:55:34.533Z,23.15
2017-05-14T01:56:34.566Z,23.09
2017-05-14T01:57:34.587Z,23.04
2017-05-14T01:58:34.617Z,23.12
2017-05-14T01:59:34.645Z,23.09
2017-05-14T02:00:34.673Z,23.1
2017-05-14T02:01:34.391Z,23.07
2017-05-14T02:02:34.415Z,23.12
2017-05-14T02:03:34.755Z,23.07
2017-05-14T02:04:34.472Z,23.09
2017-05-14T02:05:34.815Z,23.09
2017-05-14T02:06:34.209Z,23.07
2017-05-14T02:07:34.871Z,23.09
2017-05-14T02:08:34.900Z,23.12
2017-05-14T02:09:34.916Z,23.1
2017-05-14T02:10:34.952Z,23.07
2017-05-14T02:11:34.709Z,23.09
2017-05-14T02:12:34.691Z,23.02
2017-05-14T02:13:35.039Z,23.07
2017-05-14T02:14:35.060Z,23.05
2017-05-14T02:15:35.080Z,23.07
2017-05-14T02:16:34.803Z,23.09
2017-05-14T02:17:34.827Z,23.05
2017-05-14T02:18:35.160Z,23.09
2017-05-14T02:19:35.195Z,23.07
2017-05-14T02:20:35.224Z,23.05
2017-05-14T02:21:34.933Z,23.07
2017-05-14T02:22:35.289Z,23.04
2017-05-14T02:23:35.311Z,23.07
2017-05-14T02:24:35.334Z,23.02
2017-05-14T02:25:35.361Z,23.07
2017-05-14T02:26:35.329Z,23.09
2017-05-14T02:27:35.103Z,23.01
2017-05-14T02:28:35.131Z,23.05
2017-05-14T02:29:35.469Z,23.05
2017-05-14T02:30:35.184Z,23.1
2017-05-14T02:31:35.154Z,23.04
2017-05-14T02:32:35.555Z,23.09
2017-05-14T02:33:35.582Z,23.05
2017-05-14T02:34:35.298Z,23.09
2017-05-14T02:35:35.636Z,23.01
2017-05-14T02:36:35.857Z,23.02
2017-05-14T02:37:35.690Z,23.07
2017-05-14T02:38:35.718Z,23.05
2017-05-14T02:39:35.436Z,23.02
2017-05-14T02:40:35.460Z,23.09
2017-05-14T02:41:36.052Z,23.04
2017-05-14T02:42:35.831Z,23
2017-05-14T02:43:35.542Z,23.07
2017-05-14T02:44:35.883Z,23.15
2017-05-14T02:45:35.596Z,23.1
2017-05-14T02:46:36.194Z,23.09
2017-05-14T02:47:35.653Z,23.05
2017-05-14T02:48:35.995Z,23.02
2017-05-14T02:49:35.715Z,23.05
2017-05-14T02:50:36.056Z,23.01
2017-05-14T02:51:36.281Z,23.07
2017-05-14T02:52:36.106Z,23.04
2017-05-14T02:53:36.136Z,23.05
2017-05-14T02:54:36.152Z,23.09
2017-05-14T02:55:36.184Z,23.02
2017-05-14T02:56:36.461Z,23.04
2017-05-14T02:57:35.925Z,23.02
2017-05-14T02:58:36.270Z,23.05
2017-05-14T02:59:36.303Z,23.05
2017-05-14T03:00:36.011Z,23.05
2017-05-14T03:01:36.552Z,23.02
2017-05-14T03:02:36.381Z,23
2017-05-14T03:03:36.407Z,23.05
2017-05-14T03:04:36.123Z,23.04
2017-05-14T03:05:36.151Z,23.04
2017-05-14T03:06:36.743Z,23.05
2017-05-14T03:07:36.521Z,23.07
2017-05-14T03:08:36.545Z,23.09
2017-05-14T03:09:36.259Z,23.05
2017-05-14T03:10:36.596Z,23.07
2017-05-14T03:11:36.875Z,23.09
2017-05-14T03:12:36.659Z,23.09
2017-05-14T03:13:36.678Z,23.12
2017-05-14T03:14:36.711Z,23.1
2017-05-14T03:15:36.739Z,23.1
2017-05-14T03:16:36.960Z,23.05
2017-05-14T03:17:36.486Z,23.05
2017-05-14T03:18:36.563Z,23.05
2017-05-14T03:19:36.850Z,23.07
2017-05-14T03:20:36.564Z,23.07
2017-05-14T03:21:36.282Z,23.07
2017-05-14T03:22:36.622Z,23.1
2017-05-14T03:23:36.651Z,23.09
2017-05-14T03:24:36.995Z,23.1
2017-05-14T03:25:37.015Z,23.07
2017-05-14T03:26:37.039Z,23.04
2017-05-14T03:27:37.069Z,23.07
2017-05-14T03:28:36.784Z,23.04
2017-05-14T03:29:37.126Z,23.04
2017-05-14T03:30:37.151Z,23
2017-05-14T03:31:36.864Z,23.05
2017-05-14T03:32:36.940Z,22.98
2017-05-14T03:33:36.925Z,23.04
2017-05-14T03:34:36.946Z,23.12
2017-05-14T03:35:37.331Z,23.02
2017-05-14T03:36:37.312Z,23.09
2017-05-14T03:37:37.346Z,23.07
2017-05-14T03:38:37.369Z,23
2017-05-14T03:39:37.400Z,23.01
2017-05-14T03:40:37.423Z,23.1
2017-05-14T03:41:37.449Z,23.07
2017-05-14T03:42:37.113Z,23.09
2017-05-14T03:43:37.506Z,22.98
2017-05-14T03:44:37.538Z,23.09
2017-05-14T03:45:37.563Z,23.04
2017-05-14T03:46:37.593Z,23.04
2017-05-14T03:47:37.864Z,23.07
2017-05-14T03:48:37.644Z,23.04
2017-05-14T03:49:37.674Z,23.05
2017-05-14T03:50:37.699Z,23.07
2017-05-14T03:51:37.727Z,23.04
2017-05-14T03:52:37.957Z,23.02
2017-05-14T03:53:37.478Z,23.05
2017-05-14T03:54:37.818Z,23.05
2017-05-14T03:55:37.526Z,23.04
2017-05-14T03:56:37.552Z,23.05
2017-05-14T03:57:38.141Z,23.07
2017-05-14T03:58:37.610Z,23.04
2017-05-14T03:59:37.953Z,22.98
2017-05-14T04:00:37.970Z,23.01
2017-05-14T04:01:38.003Z,23.04
2017-05-14T04:02:38.284Z,22.98
2017-05-14T04:03:38.057Z,23.05
2017-05-14T04:04:37.453Z,23.01
2017-05-14T04:05:38.111Z,23.04
2017-05-14T04:06:38.139Z,23.05
2017-05-14T04:07:38.372Z,23.07
2017-05-14T04:08:37.877Z,23.1
2017-05-14T04:09:38.223Z,23.1
2017-05-14T04:10:38.250Z,23.02
2017-05-14T04:11:38.275Z,23.05
2017-05-14T04:12:38.244Z,23.05
2017-05-14T04:13:38.022Z,23.02
2017-05-14T04:14:38.357Z,23.1
2017-05-14T04:15:38.070Z,23.02
2017-05-14T04:16:38.416Z,23.04
2017-05-14T04:17:38.696Z,23.1
2017-05-14T04:18:38.157Z,23.07
2017-05-14T04:19:38.185Z,23.05
2017-05-14T04:20:38.210Z,23.05
2017-05-14T04:21:38.560Z,23.07
2017-05-14T04:22:38.832Z,23.04
2017-05-14T04:23:38.605Z,23.02
2017-05-14T04:24:38.633Z,23.04
2017-05-14T04:25:38.350Z,23.04
2017-05-14T04:26:38.683Z,23
2017-05-14T04:27:38.917Z,23.01
2017-05-14T04:28:38.744Z,23.1
2017-05-14T04:29:38.773Z,23.07
2017-05-14T04:30:38.791Z,23.05
2017-05-14T04:31:38.830Z,23.09
2017-05-14T04:32:39.112Z,23.05
2017-05-14T04:33:38.568Z,23.07
2017-05-14T04:34:38.596Z,23.05
2017-05-14T04:35:38.626Z,23.07
2017-05-14T04:36:38.963Z,23.15
2017-05-14T04:37:38.879Z,23.09
2017-05-14T04:38:38.714Z,23.13
2017-05-14T04:39:38.737Z,23.17
2017-05-14T04:40:38.763Z,23.09
2017-05-14T04:41:38.787Z,23.07
2017-05-14T04:42:39.372Z,23.12
2017-05-14T04:43:38.858Z,23.15
2017-05-14T04:44:38.869Z,23.05
2017-05-14T04:45:39.205Z,23.1
2017-05-14T04:46:39.232Z,23.09
2017-05-14T04:47:39.462Z,23.1
2017-05-14T04:48:39.290Z,23.09
2017-05-14T04:49:39.321Z,23.09
2017-05-14T04:50:39.348Z,23.05
2017-05-14T04:51:39.374Z,23.09
2017-05-14T04:52:38.777Z,23.09
2017-05-14T04:53:39.120Z,23.09
2017-05-14T04:54:39.456Z,23.1
2017-05-14T04:55:39.169Z,23.09
2017-05-14T04:56:39.515Z,23.1
2017-05-14T04:57:39.534Z,23.09
2017-05-14T04:58:39.576Z,23.05
2017-05-14T04:59:39.600Z,23.1
2017-05-14T05:00:39.620Z,23.13
2017-05-14T05:01:39.646Z,23.16
2017-05-14T05:02:39.684Z,23.13
2017-05-14T05:03:39.704Z,23.13
2017-05-14T05:04:39.420Z,23.12
2017-05-14T05:05:39.457Z,23.16
2017-05-14T05:06:39.798Z,23.09
2017-05-14T05:07:39.500Z,23.12
2017-05-14T05:08:39.839Z,23.12
2017-05-14T05:09:39.870Z,23.13
2017-05-14T05:10:39.908Z,23.04
2017-05-14T05:11:39.925Z,23.1
2017-05-14T05:12:39.951Z,23.09
2017-05-14T05:13:39.984Z,23.04
2017-05-14T05:14:39.698Z,23.12
2017-05-14T05:15:40.033Z,23.1
2017-05-14T05:16:40.062Z,23.13
2017-05-14T05:17:40.095Z,23.13
2017-05-14T05:18:39.805Z,23.09
2017-05-14T05:19:40.150Z,23.17
2017-05-14T05:20:40.173Z,23.16
2017-05-14T05:21:39.573Z,23.19
2017-05-14T05:22:40.224Z,23.16
2017-05-14T05:23:39.943Z,23.17
2017-05-14T05:24:40.281Z,23.17
2017-05-14T05:25:40.308Z,23.17
2017-05-14T05:26:40.338Z,23.12
2017-05-14T05:27:40.052Z,23.19
2017-05-14T05:28:40.392Z,23.16
2017-05-14T05:29:40.411Z,23.19
2017-05-14T05:30:40.449Z,23.17
2017-05-14T05:31:40.163Z,23.17
2017-05-14T05:32:40.506Z,23.19
2017-05-14T05:33:39.904Z,23.16
2017-05-14T05:34:40.244Z,23.15
2017-05-14T05:35:40.273Z,23.22
2017-05-14T05:36:40.609Z,23.22
2017-05-14T05:37:40.639Z,23.19
2017-05-14T05:38:40.874Z,23.17
2017-05-14T05:39:40.702Z,23.09
2017-05-14T05:40:40.718Z,23.16
2017-05-14T05:41:40.437Z,23.17
2017-05-14T05:42:40.462Z,23.19
2017-05-14T05:43:40.738Z,23.19
2017-05-14T05:44:40.521Z,23.13
2017-05-14T05:45:40.855Z,23.22
2017-05-14T05:46:40.885Z,23.23
2017-05-14T05:47:40.915Z,23.15
2017-05-14T05:48:40.562Z,23.15
2017-05-14T05:49:40.340Z,23.15
2017-05-14T05:50:40.684Z,23.17
2017-05-14T05:51:41.022Z,23.19
2017-05-14T05:52:40.742Z,23.22
2017-05-14T05:53:41.275Z,23.2
2017-05-14T05:54:41.104Z,23.19
2017-05-14T05:55:41.133Z,23.15
2017-05-14T05:56:41.161Z,23.15
2017-05-14T05:57:41.190Z,23.15
2017-05-14T05:58:41.406Z,23.25
2017-05-14T05:59:41.243Z,23.12
2017-05-14T06:00:41.272Z,23.22
2017-05-14T06:01:41.302Z,23.16
2017-05-14T06:02:40.693Z,23.12
2017-05-14T06:03:41.299Z,23.13
2017-05-14T06:04:41.379Z,23.22
2017-05-14T06:05:40.784Z,23.12
2017-05-14T06:06:41.440Z,23.23
2017-05-14T06:07:41.470Z,23.23
2017-05-14T06:08:41.742Z,23.15
2017-05-14T06:09:41.523Z,23.25
2017-05-14T06:10:40.917Z,23.15
2017-05-14T06:11:41.261Z,23.2
2017-05-14T06:12:41.290Z,23.25
2017-05-14T06:13:41.821Z,23.23
2017-05-14T06:14:41.343Z,23.22
2017-05-14T06:15:41.685Z,23.27
2017-05-14T06:16:41.396Z,23.27
2017-05-14T06:17:41.737Z,23.25
2017-05-14T06:18:42.030Z,23.27
2017-05-14T06:19:41.487Z,23.31
2017-05-14T06:20:41.820Z,23.28
2017-05-14T06:21:41.537Z,23.28
2017-05-14T06:22:41.877Z,23.31
2017-05-14T06:23:42.146Z,23.32
2017-05-14T06:24:41.936Z,23.39
2017-05-14T06:25:41.964Z,23.32
2017-05-14T06:26:42.012Z,23.4
2017-05-14T06:27:42.018Z,23.32
2017-05-14T06:28:41.670Z,23.35
2017-05-14T06:29:42.072Z,23.35
2017-05-14T06:30:42.095Z,23.39
2017-05-14T06:31:41.808Z,23.33
2017-05-14T06:32:42.153Z,23.38
2017-05-14T06:33:42.065Z,23.38
2017-05-14T06:34:42.213Z,23.36
2017-05-14T06:35:41.920Z,23.43
2017-05-14T06:36:41.949Z,23.46
2017-05-14T06:37:42.286Z,23.38
2017-05-14T06:38:42.569Z,23.39
2017-05-14T06:39:42.343Z,23.43
2017-05-14T06:40:42.376Z,23.4
2017-05-14T06:41:42.404Z,23.48
2017-05-14T06:42:42.432Z,23.47
2017-05-14T06:43:42.650Z,23.53
2017-05-14T06:44:42.482Z,23.5
2017-05-14T06:45:42.195Z,23.5
2017-05-14T06:46:42.224Z,23.53
2017-05-14T06:47:42.572Z,23.46
2017-05-14T06:48:42.841Z,23.5
2017-05-14T06:49:42.623Z,23.47
2017-05-14T06:50:42.649Z,23.5
2017-05-14T06:51:42.680Z,23.5
2017-05-14T06:52:42.703Z,23.5
2017-05-14T06:53:42.682Z,23.5
2017-05-14T06:54:42.443Z,23.53
2017-05-14T06:55:42.801Z,23.43
2017-05-14T06:56:42.497Z,23.51
2017-05-14T06:57:42.841Z,23.5
2017-05-14T06:58:43.122Z,23.46
2017-05-14T06:59:42.315Z,23.48
2017-05-14T07:00:42.924Z,23.48
2017-05-14T07:01:42.948Z,23.51
2017-05-14T07:02:42.985Z,23.48
2017-05-14T07:03:43.245Z,23.57
2017-05-14T07:04:42.411Z,23.48
2017-05-14T07:05:42.751Z,23.55
2017-05-14T07:06:43.083Z,23.57
2017-05-14T07:07:43.112Z,23.55
2017-05-14T07:08:43.081Z,23.53
2017-05-14T07:09:43.178Z,23.54
2017-05-14T07:10:43.200Z,23.54
2017-05-14T07:11:42.908Z,23.57
2017-05-14T07:12:43.261Z,23.58
2017-05-14T07:13:43.185Z,23.58
2017-05-14T07:14:42.997Z,23.66
2017-05-14T07:15:43.335Z,23.66
2017-05-14T07:16:43.051Z,23.65
2017-05-14T07:17:43.394Z,23.61
2017-05-14T07:18:43.302Z,23.65
2017-05-14T07:19:43.139Z,23.58
2017-05-14T07:20:43.167Z,23.55
2017-05-14T07:21:43.544Z,23.65
2017-05-14T07:22:43.222Z,23.61
2017-05-14T07:23:43.502Z,23.63
2017-05-14T07:24:43.590Z,23.54
2017-05-14T07:25:43.619Z,23.65
2017-05-14T07:26:43.648Z,23.61
2017-05-14T07:27:43.673Z,23.61
2017-05-14T07:28:43.636Z,23.58
2017-05-14T07:29:43.722Z,23.63
2017-05-14T07:30:43.443Z,23.61
2017-05-14T07:31:43.787Z,23.65
2017-05-14T07:32:43.504Z,23.63
2017-05-14T07:33:43.717Z,23.63
2017-05-14T07:34:43.553Z,23.72
2017-05-14T07:35:43.582Z,23.57
2017-05-14T07:36:43.611Z,23.7
2017-05-14T07:37:43.944Z,23.72
2017-05-14T07:38:44.224Z,23.72
2017-05-14T07:39:43.693Z,23.68
2017-05-14T07:40:44.026Z,23.7
2017-05-14T07:41:43.755Z,23.72
2017-05-14T07:42:43.780Z,23.76
2017-05-14T07:43:44.368Z,23.69
2017-05-14T07:44:44.146Z,23.72
2017-05-14T07:45:43.867Z,23.68
2017-05-14T07:46:43.893Z,23.65
2017-05-14T07:47:44.236Z,23.61
2017-05-14T07:48:44.457Z,23.54
2017-05-14T07:49:43.973Z,23.72
2017-05-14T07:50:44.304Z,23.7
2017-05-14T07:51:44.334Z,23.65
2017-05-14T07:52:43.739Z,23.72
2017-05-14T07:53:44.392Z,23.58
2017-05-14T07:54:44.425Z,23.73
2017-05-14T07:55:44.137Z,23.65
2017-05-14T07:56:44.479Z,23.69
2017-05-14T07:57:44.512Z,23.69
2017-05-14T07:58:44.220Z,23.57
2017-05-14T07:59:44.576Z,23.58
2017-05-14T08:00:44.586Z,23.66
2017-05-14T08:01:43.990Z,23.55
2017-05-14T08:02:44.656Z,23.75
2017-05-14T08:03:44.677Z,23.72
2017-05-14T08:04:44.393Z,23.53
2017-05-14T08:05:44.737Z,23.66
2017-05-14T08:06:44.755Z,23.6
2017-05-14T08:07:44.470Z,23.61
2017-05-14T08:08:44.820Z,23.63
2017-05-14T08:09:44.844Z,23.65
2017-05-14T08:10:44.879Z,23.7
2017-05-14T08:11:44.938Z,23.6
2017-05-14T08:12:44.923Z,23.63
2017-05-14T08:13:44.647Z,23.69
2017-05-14T08:14:44.984Z,23.69
2017-05-14T08:15:44.699Z,23.7
2017-05-14T08:16:44.727Z,23.68
2017-05-14T08:17:45.062Z,23.69
2017-05-14T08:18:44.788Z,23.72
2017-05-14T08:19:45.124Z,23.72
2017-05-14T08:20:45.149Z,23.72
2017-05-14T08:21:45.173Z,23.75
2017-05-14T08:22:45.203Z,23.7
2017-05-14T08:23:44.923Z,23.75
2017-05-14T08:24:44.948Z,23.72
2017-05-14T08:25:45.281Z,23.76
2017-05-14T08:26:45.320Z,23.76
2017-05-14T08:27:45.341Z,23.69
2017-05-14T08:28:44.752Z,23.76
2017-05-14T08:29:45.096Z,23.78
2017-05-14T08:30:45.428Z,23.72
2017-05-14T08:31:45.461Z,23.7
2017-05-14T08:32:45.515Z,23.73
2017-05-14T08:33:45.515Z,23.83
2017-05-14T08:34:45.228Z,23.83
2017-05-14T08:35:45.567Z,23.78
2017-05-14T08:36:45.297Z,23.87
2017-05-14T08:37:45.308Z,23.76
2017-05-14T08:38:45.653Z,23.85
2017-05-14T08:39:45.681Z,23.84
2017-05-14T08:40:45.407Z,23.84
2017-05-14T08:41:45.742Z,23.85
2017-05-14T08:42:45.762Z,23.83
2017-05-14T08:43:45.795Z,23.87
2017-05-14T08:44:45.827Z,23.9
2017-05-14T08:45:45.848Z,23.95
2017-05-14T08:46:45.884Z,23.85
2017-05-14T08:47:45.588Z,23.85
2017-05-14T08:48:45.934Z,23.88
2017-05-14T08:49:45.653Z,23.9
2017-05-14T08:50:45.683Z,23.91
2017-05-14T08:51:45.708Z,23.93
2017-05-14T08:52:46.054Z,23.93
2017-05-14T08:53:46.110Z,23.98
2017-05-14T08:54:46.106Z,23.97
2017-05-14T08:55:46.134Z,23.98
2017-05-14T08:56:45.548Z,23.97
2017-05-14T08:57:46.189Z,23.98
2017-05-14T08:58:45.902Z,24
2017-05-14T08:59:46.131Z,23.98
2017-05-14T09:00:46.277Z,24.05
2017-05-14T09:01:46.302Z,24.03
2017-05-14T09:02:46.012Z,24.08
2017-05-14T09:03:46.354Z,24.1
2017-05-14T09:04:46.014Z,24.12
2017-05-14T09:05:46.408Z,24.09
2017-05-14T09:06:46.441Z,24.13
2017-05-14T09:07:45.842Z,24.18
2017-05-14T09:08:46.506Z,24.18
2017-05-14T09:09:46.730Z,24.18
2017-05-14T09:10:45.931Z,24.21
2017-05-14T09:11:46.271Z,24.24
2017-05-14T09:12:46.597Z,24.18
2017-05-14T09:13:46.326Z,24.22
2017-05-14T09:14:46.650Z,24.31
2017-05-14T09:15:46.696Z,24.31
2017-05-14T09:16:46.412Z,24.28
2017-05-14T09:17:46.752Z,24.28
2017-05-14T09:18:46.782Z,24.28
2017-05-14T09:19:46.746Z,24.25
2017-05-14T09:20:46.834Z,24.25
2017-05-14T09:21:46.863Z,24.21
2017-05-14T09:22:46.580Z,24.34
2017-05-14T09:23:46.917Z,24.25
2017-05-14T09:24:47.189Z,24.34
2017-05-14T09:25:46.981Z,24.24
2017-05-14T09:26:46.361Z,24.24
2017-05-14T09:27:46.705Z,24.22
2017-05-14T09:28:47.052Z,24.27
2017-05-14T09:29:47.037Z,24.21
2017-05-14T09:30:47.122Z,24.31
2017-05-14T09:31:47.151Z,24.27
2017-05-14T09:32:46.869Z,24.22
2017-05-14T09:33:46.897Z,24.21
2017-05-14T09:34:47.123Z,24.3
2017-05-14T09:35:46.952Z,24.28
2017-05-14T09:36:46.975Z,24.21
2017-05-14T09:37:47.320Z,24.24
2017-05-14T09:38:47.037Z,24.28
2017-05-14T09:39:47.577Z,24.3
2017-05-14T09:40:47.094Z,24.24
2017-05-14T09:41:47.435Z,24.27
2017-05-14T09:42:47.148Z,24.28
2017-05-14T09:43:47.180Z,24.22
2017-05-14T09:44:47.778Z,24.22
2017-05-14T09:45:47.554Z,24.28
2017-05-14T09:46:47.574Z,24.3
2017-05-14T09:47:47.654Z,24.31
2017-05-14T09:48:47.628Z,24.27
2017-05-14T09:49:47.237Z,24.31
2017-05-14T09:50:47.689Z,24.27
2017-05-14T09:51:47.724Z,24.16
2017-05-14T09:52:47.428Z,24.24
2017-05-14T09:53:47.460Z,24.22
2017-05-14T09:54:48.063Z,24.28
2017-05-14T09:55:47.522Z,24.24
2017-05-14T09:56:47.238Z,24.34
2017-05-14T09:57:47.887Z,24.35
2017-05-14T09:58:47.911Z,24.3
2017-05-14T09:59:48.147Z,24.43
2017-05-14T10:00:47.662Z,24.45
2017-05-14T10:01:47.684Z,24.4
2017-05-14T10:02:48.031Z,24.4
2017-05-14T10:03:47.440Z,24.39
2017-05-14T10:04:48.337Z,24.4
2017-05-14T10:05:48.117Z,24.35
2017-05-14T10:06:48.147Z,24.34
2017-05-14T10:07:47.863Z,24.31
2017-05-14T10:08:48.201Z,24.39
2017-05-14T10:09:48.481Z,24.34
2017-05-14T10:10:48.262Z,24.34
2017-05-14T10:11:47.978Z,24.39
2017-05-14T10:12:48.319Z,24.22
2017-05-14T10:13:48.343Z,24.3
2017-05-14T10:14:48.626Z,24.28
2017-05-14T10:15:48.089Z,24.25
2017-05-14T10:16:48.110Z,24.27
2017-05-14T10:17:48.459Z,24.25
2017-05-14T10:18:48.172Z,24.27
2017-05-14T10:19:48.769Z,24.25
2017-05-14T10:20:48.233Z,24.21
2017-05-14T10:21:48.259Z,24.3
2017-05-14T10:22:48.609Z,24.25
2017-05-14T10:23:48.315Z,24.22
2017-05-14T10:24:48.864Z,24.24
2017-05-14T10:25:48.685Z,24.22
2017-05-14T10:26:48.710Z,24.31
2017-05-14T10:27:48.422Z,24.25
2017-05-14T10:28:48.474Z,24.3
2017-05-14T10:29:49.053Z,24.24
2017-05-14T10:30:48.832Z,24.27
2017-05-14T10:31:48.543Z,24.16
2017-05-14T10:32:48.886Z,24.25
2017-05-14T10:33:48.635Z,24.24
2017-05-14T10:34:49.196Z,24.25
2017-05-14T10:35:48.976Z,24.21
2017-05-14T10:36:48.998Z,24.21
2017-05-14T10:37:49.034Z,24.18
2017-05-14T10:38:48.428Z,24.2
2017-05-14T10:39:49.292Z,24.22
2017-05-14T10:40:49.117Z,24.3
2017-05-14T10:41:48.840Z,24.31
2017-05-14T10:42:49.173Z,24.25
2017-05-14T10:43:49.191Z,24.24
2017-05-14T10:44:49.471Z,24.25
2017-05-14T10:45:48.944Z,24.35
2017-05-14T10:46:48.975Z,24.43
2017-05-14T10:47:49.002Z,24.4
2017-05-14T10:48:48.715Z,24.4
2017-05-14T10:49:49.623Z,24.49
2017-05-14T10:50:49.421Z,24.45
2017-05-14T10:51:49.424Z,24.53
2017-05-14T10:52:49.452Z,24.52
2017-05-14T10:53:49.482Z,24.53
2017-05-14T10:54:49.199Z,24.58
2017-05-14T10:55:49.543Z,24.52
2017-05-14T10:56:49.568Z,24.52
2017-05-14T10:57:49.594Z,24.61
2017-05-14T10:58:49.319Z,24.6
2017-05-14T10:59:49.664Z,24.67
2017-05-14T11:00:49.059Z,24.61
2017-05-14T11:01:49.711Z,24.65
2017-05-14T11:02:49.754Z,24.64
2017-05-14T11:03:49.774Z,24.64
2017-05-14T11:04:49.484Z,24.52
2017-05-14T11:05:49.829Z,24.49
2017-05-14T11:06:49.536Z,24.55
2017-05-14T11:07:49.566Z,24.46
2017-05-14T11:08:49.911Z,24.6
2017-05-14T11:09:49.944Z,24.53
2017-05-14T11:10:49.972Z,24.49
2017-05-14T11:11:49.996Z,24.46
2017-05-14T11:12:49.734Z,24.49
2017-05-14T11:13:50.058Z,24.46
2017-05-14T11:14:50.094Z,24.52
2017-05-14T11:15:50.113Z,24.4
2017-05-14T11:16:50.136Z,24.39
2017-05-14T11:17:50.169Z,24.37
2017-05-14T11:18:49.881Z,24.4
2017-05-14T11:19:49.906Z,24.39
2017-05-14T11:20:49.949Z,24.39
2017-05-14T11:21:49.655Z,24.34
2017-05-14T11:22:50.001Z,24.35
2017-05-14T11:23:50.337Z,24.34
2017-05-14T11:24:50.057Z,24.3
2017-05-14T11:25:50.399Z,24.28
2017-05-14T11:26:50.118Z,24.3
2017-05-14T11:27:50.461Z,24.34
2017-05-14T11:28:50.485Z,24.34
2017-05-14T11:29:50.519Z,24.27
2017-05-14T11:30:50.231Z,24.25
2017-05-14T11:31:50.572Z,24.42
2017-05-14T11:32:50.289Z,24.22
2017-05-14T11:33:50.626Z,24.39
2017-05-14T11:34:50.662Z,24.27
2017-05-14T11:35:50.932Z,24.32
2017-05-14T11:36:50.716Z,24.39
2017-05-14T11:37:50.745Z,24.4
2017-05-14T11:38:50.772Z,24.34
2017-05-14T11:39:50.801Z,24.28
2017-05-14T11:40:51.082Z,24.34
2017-05-14T11:41:50.855Z,24.3
2017-05-14T11:42:50.889Z,24.31
2017-05-14T11:43:50.963Z,24.25
2017-05-14T11:44:50.942Z,24.25
2017-05-14T11:45:51.232Z,24.34
2017-05-14T11:46:50.999Z,24.27
2017-05-14T11:47:50.713Z,24.22
2017-05-14T11:48:51.069Z,24.27
2017-05-14T11:49:51.086Z,24.27
2017-05-14T11:50:51.366Z,24.24
2017-05-14T11:51:51.139Z,24.27
2017-05-14T11:52:50.851Z,24.31
2017-05-14T11:53:51.230Z,24.28
2017-05-14T11:54:51.225Z,24.31
2017-05-14T11:55:51.194Z,24.31
2017-05-14T11:56:51.284Z,24.32
2017-05-14T11:57:51.312Z,24.27
2017-05-14T11:58:51.341Z,24.25
2017-05-14T11:59:51.365Z,24.21
2017-05-14T12:00:51.648Z,24.34
2017-05-14T12:01:51.428Z,24.34
2017-05-14T12:02:51.456Z,24.4
2017-05-14T12:03:51.484Z,24.35
2017-05-14T12:04:51.497Z,24.39
2017-05-14T12:05:51.478Z,24.4
2017-05-14T12:06:50.939Z,24.31
2017-05-14T12:07:51.284Z,24.42
2017-05-14T12:08:51.316Z,24.42
2017-05-14T12:09:51.649Z,24.37
2017-05-14T12:10:51.933Z,24.39
2017-05-14T12:11:51.402Z,24.42
2017-05-14T12:12:51.427Z,24.4
2017-05-14T12:13:51.450Z,24.4
2017-05-14T12:14:51.797Z,24.35
2017-05-14T12:15:52.079Z,24.39
2017-05-14T12:16:51.547Z,24.45
2017-05-14T12:17:51.570Z,24.4
2017-05-14T12:18:51.285Z,24.34
2017-05-14T12:19:51.941Z,24.42
2017-05-14T12:20:52.225Z,24.45
2017-05-14T12:21:52.007Z,24.45
2017-05-14T12:22:52.022Z,24.45
2017-05-14T12:23:52.054Z,24.53
2017-05-14T12:24:52.089Z,24.69
2017-05-14T12:25:52.365Z,24.85
2017-05-14T12:26:52.146Z,24.96
2017-05-14T12:27:51.868Z,25.15
2017-05-14T12:28:52.191Z,25.46
2017-05-14T12:29:52.232Z,25.54
2017-05-14T12:30:52.468Z,25.75
2017-05-14T12:31:52.286Z,25.98
2017-05-14T12:32:52.323Z,26.13
2017-05-14T12:33:52.348Z,26.29
2017-05-14T12:34:52.386Z,26.39
2017-05-14T12:35:52.345Z,26.52
2017-05-14T12:36:52.446Z,26.63
2017-05-14T12:37:51.847Z,26.65
2017-05-14T12:38:52.504Z,26.62
2017-05-14T12:39:52.533Z,26.65
2017-05-14T12:40:52.817Z,26.65
2017-05-14T12:41:52.585Z,26.57
2017-05-14T12:42:52.619Z,26.52
2017-05-14T12:43:52.652Z,26.4
2017-05-14T12:44:52.683Z,26.4
2017-05-14T12:45:52.968Z,26.29
2017-05-14T12:46:52.740Z,26.21
2017-05-14T12:47:52.474Z,26.17
2017-05-14T12:48:52.490Z,26.1
2017-05-14T12:49:52.841Z,26.06
2017-05-14T12:50:53.142Z,25.98
2017-05-14T12:51:52.892Z,25.87
2017-05-14T12:52:52.922Z,25.9
2017-05-14T12:53:52.959Z,25.8
2017-05-14T12:54:52.988Z,25.73
2017-05-14T12:55:53.276Z,25.72
2017-05-14T12:56:53.040Z,25.69